createdAt,value
2022-11-16T00:00:27.472Z,8.00
2022-11-16T00:03:04.787Z,8.10
2022-11-16T00:05:32.732Z,9.70
2022-11-16T00:08:00.601Z,7.80
2022-11-16T00:10:28.488Z,7.80
2022-11-16T00:12:56.360Z,9.20
2022-11-16T00:15:24.352Z,6.50
2022-11-16T00:17:52.297Z,8.10
2022-11-16T00:20:20.213Z,8.70
2022-11-16T00:22:48.133Z,8.00
2022-11-16T00:25:16.297Z,6.50
2022-11-16T00:27:44.784Z,7.30
2022-11-16T00:30:13.577Z,7.30
2022-11-16T00:32:41.428Z,7.50
2022-11-16T00:35:09.547Z,7.80
2022-11-16T00:37:37.398Z,8.00
2022-11-16T00:40:07.722Z,7.70
2022-11-16T00:42:35.644Z,7.50
2022-11-16T00:45:04.514Z,8.30
2022-11-16T00:47:32.534Z,7.60
2022-11-16T00:50:00.400Z,7.60
2022-11-16T00:52:28.492Z,8.00
2022-11-16T00:54:57.185Z,7.80
2022-11-16T00:57:25.440Z,7.60
2022-11-16T00:59:53.781Z,7.80
2022-11-16T01:02:22.091Z,8.40
2022-11-16T01:04:50.204Z,7.60
2022-11-16T01:07:18.163Z,8.10
2022-11-16T01:09:48.032Z,7.70
2022-11-16T01:12:18.029Z,7.60
2022-11-16T01:14:47.777Z,7.70
2022-11-16T01:17:15.844Z,7.40
2022-11-16T01:19:43.781Z,7.90
2022-11-16T01:22:11.661Z,7.20
2022-11-16T01:24:39.769Z,9.00
2022-11-16T01:27:07.834Z,7.70
2022-11-16T01:29:38.761Z,6.60
2022-11-16T01:32:07.844Z,8.00
2022-11-16T01:34:36.412Z,7.30
2022-11-16T01:37:18.346Z,8.30
2022-11-16T01:39:50.047Z,7.20
2022-11-16T01:42:31.038Z,6.40
2022-11-16T01:45:31.773Z,7.60
2022-11-16T01:48:00.955Z,7.60
2022-11-16T01:50:34.085Z,7.40
2022-11-16T01:53:07.294Z,7.10
2022-11-16T01:55:47.240Z,7.40
2022-11-16T01:58:25.982Z,7.00
2022-11-16T02:01:04.105Z,7.40
2022-11-16T02:03:38.801Z,7.80
2022-11-16T02:06:27.065Z,7.40
2022-11-16T02:09:46.013Z,7.50
2022-11-16T02:12:29.465Z,6.20
2022-11-16T02:15:22.321Z,7.40
2022-11-16T02:18:14.790Z,6.50
2022-11-16T02:20:59.710Z,7.40
2022-11-16T02:23:55.505Z,7.40
2022-11-16T02:27:19.923Z,6.90
2022-11-16T02:29:54.751Z,7.00
2022-11-16T02:35:29.364Z,6.70
2022-11-16T02:38:05.661Z,7.60
2022-11-16T02:40:39.370Z,7.50
2022-11-16T02:43:20.648Z,9.50
2022-11-16T02:45:55.556Z,7.90
2022-11-16T02:48:34.019Z,6.80
2022-11-16T02:51:06.545Z,7.60
2022-11-16T02:53:51.784Z,7.40
2022-11-16T02:56:22.075Z,6.80
2022-11-16T02:58:50.667Z,7.70
2022-11-16T03:01:38.899Z,6.90
2022-11-16T03:04:22.241Z,7.50
2022-11-16T03:06:51.988Z,7.60
2022-11-16T03:09:32.076Z,8.50
2022-11-16T03:12:05.919Z,7.40
2022-11-16T03:14:57.540Z,7.80
2022-11-16T03:17:30.154Z,7.60
2022-11-16T03:20:11.999Z,6.30
2022-11-16T03:22:57.023Z,7.70
2022-11-16T03:25:33.881Z,8.20
2022-11-16T03:28:42.880Z,7.20
2022-11-16T03:31:18.850Z,7.60
2022-11-16T03:33:54.166Z,7.20
2022-11-16T03:36:33.560Z,6.80
2022-11-16T03:39:32.082Z,7.50
2022-11-16T03:42:04.175Z,7.20
2022-11-16T03:44:33.056Z,7.30
2022-11-16T03:47:02.359Z,7.10
2022-11-16T03:49:31.574Z,8.00
2022-11-16T03:51:59.702Z,8.20
2022-11-16T03:54:27.591Z,7.30
2022-11-16T03:56:55.563Z,7.00
2022-11-16T03:59:27.619Z,7.00
2022-11-16T04:01:55.962Z,8.40
2022-11-16T04:04:42.668Z,6.90
2022-11-16T04:07:29.481Z,8.70
2022-11-16T04:10:16.653Z,8.30
2022-11-16T04:13:04.689Z,7.50
2022-11-16T04:15:51.395Z,8.10
2022-11-16T04:18:38.167Z,7.20
2022-11-16T04:21:53.852Z,7.50
2022-11-16T04:24:27.539Z,7.80
2022-11-16T04:27:21.374Z,8.00
2022-11-16T04:29:49.732Z,7.80
2022-11-16T04:32:37.177Z,8.00
2022-11-16T04:35:24.505Z,8.00
2022-11-16T04:37:55.104Z,7.80
2022-11-16T04:40:29.668Z,9.10
2022-11-16T04:43:03.652Z,7.10
2022-11-16T04:45:58.959Z,7.10
2022-11-16T04:48:31.643Z,7.10
2022-11-16T04:50:59.831Z,7.40
2022-11-16T04:53:28.108Z,7.10
2022-11-16T04:56:12.670Z,8.10
2022-11-16T04:58:40.639Z,7.10
2022-11-16T05:01:09.036Z,7.50
2022-11-16T05:03:37.401Z,7.90
2022-11-16T05:06:06.466Z,7.30
2022-11-16T05:08:35.257Z,7.00
2022-11-16T05:11:04.684Z,6.60
2022-11-16T05:13:33.884Z,7.20
2022-11-16T05:16:02.289Z,7.10
2022-11-16T05:18:30.499Z,6.90
2022-11-16T05:21:01.802Z,7.50
2022-11-16T05:23:56.608Z,6.80
2022-11-16T05:26:26.087Z,8.00
2022-11-16T05:28:54.568Z,8.40
2022-11-16T05:31:22.535Z,7.70
2022-11-16T05:33:50.808Z,6.90
2022-11-16T05:36:19.043Z,7.10
2022-11-16T05:38:47.155Z,6.70
2022-11-16T05:41:15.448Z,6.80
2022-11-16T05:43:44.130Z,6.70
2022-11-16T05:46:16.230Z,6.60
2022-11-16T05:48:44.881Z,6.90
2022-11-16T05:51:13.502Z,7.20
2022-11-16T05:53:41.843Z,6.00
2022-11-16T05:56:14.422Z,6.60
2022-11-16T05:58:44.722Z,7.10
2022-11-16T06:01:12.813Z,6.10
2022-11-16T06:03:40.885Z,6.00
2022-11-16T06:06:09.660Z,6.80
2022-11-16T06:08:37.954Z,6.10
2022-11-16T06:11:10.597Z,6.20
2022-11-16T06:13:39.407Z,6.40
2022-11-16T06:16:08.013Z,6.60
2022-11-16T06:18:43.615Z,7.10
2022-11-16T06:21:14.642Z,6.30
2022-11-16T06:23:42.975Z,5.60
2022-11-16T06:26:11.968Z,7.40
2022-11-16T06:28:40.549Z,6.40
2022-11-16T06:31:08.821Z,6.50
2022-11-16T06:33:40.684Z,6.30
2022-11-16T06:36:15.108Z,5.80
2022-11-16T06:38:43.770Z,5.60
2022-11-16T06:41:12.001Z,5.50
2022-11-16T06:43:44.360Z,6.60
2022-11-16T06:46:12.903Z,6.30
2022-11-16T06:48:40.892Z,6.10
2022-11-16T06:51:12.172Z,6.00
2022-11-16T06:53:40.153Z,6.10
2022-11-16T06:56:13.511Z,5.70
2022-11-16T06:58:44.587Z,6.30
2022-11-16T07:01:14.541Z,6.00
2022-11-16T07:03:44.277Z,6.80
2022-11-16T07:06:14.029Z,5.40
2022-11-16T07:08:43.906Z,5.50
2022-11-16T07:11:12.282Z,5.90
2022-11-16T07:13:40.453Z,6.00
2022-11-16T07:16:11.844Z,5.70
2022-11-16T07:21:16.217Z,5.40
2022-11-16T07:23:44.765Z,5.30
2022-11-16T07:26:16.468Z,5.10
2022-11-16T07:28:52.608Z,5.20
2022-11-16T07:31:22.642Z,5.50
2022-11-16T07:34:10.466Z,4.90
2022-11-16T07:36:47.166Z,5.10
2022-11-16T07:39:15.371Z,5.80
2022-11-16T07:41:45.290Z,5.30
2022-11-16T07:44:25.396Z,6.10
2022-11-16T07:47:05.728Z,5.20
2022-11-16T07:49:34.768Z,4.90
2022-11-16T07:52:10.914Z,5.40
2022-11-16T07:54:56.920Z,5.00
2022-11-16T07:57:26.733Z,4.60
2022-11-16T07:59:55.831Z,4.70
2022-11-16T08:02:24.004Z,4.80
2022-11-16T08:04:52.172Z,4.80
2022-11-16T08:07:24.032Z,5.10
2022-11-16T08:09:54.816Z,4.40
2022-11-16T08:12:23.664Z,4.70
2022-11-16T08:14:52.041Z,4.70
2022-11-16T08:17:19.974Z,4.60
2022-11-16T08:19:48.392Z,4.60
2022-11-16T08:22:16.870Z,4.80
2022-11-16T08:24:45.556Z,4.10
2022-11-16T08:27:17.015Z,4.70
2022-11-16T08:29:46.829Z,4.20
2022-11-16T08:32:14.796Z,5.50
2022-11-16T08:34:42.866Z,3.50
2022-11-16T08:37:12.062Z,4.90
2022-11-16T08:39:43.594Z,3.80
2022-11-16T08:42:11.487Z,4.30
2022-11-16T08:44:40.073Z,3.80
2022-11-16T08:47:11.658Z,3.90
2022-11-16T08:49:52.183Z,4.20
2022-11-16T08:52:20.997Z,4.40
2022-11-16T08:54:50.363Z,3.80
2022-11-16T08:57:18.538Z,3.60
2022-11-16T08:59:48.567Z,4.20
2022-11-16T09:02:18.690Z,3.90
2022-11-16T09:04:47.054Z,4.00
2022-11-16T09:07:15.086Z,4.10
2022-11-16T09:09:43.065Z,4.00
2022-11-16T09:12:11.282Z,3.60
2022-11-16T09:14:40.176Z,3.70
2022-11-16T09:17:08.077Z,3.70
2022-11-16T09:19:36.117Z,4.30
2022-11-16T09:22:04.386Z,3.80
2022-11-16T09:24:32.868Z,3.20
2022-11-16T09:27:01.577Z,3.90
2022-11-16T09:29:29.836Z,3.30
2022-11-16T09:31:58.532Z,3.40
2022-11-16T09:34:26.461Z,3.30
2022-11-16T09:36:55.177Z,3.30
2022-11-16T09:39:31.710Z,4.20
2022-11-16T09:42:52.553Z,2.80
2022-11-16T09:45:38.137Z,3.60
2022-11-16T09:48:12.652Z,3.20
2022-11-16T09:53:40.855Z,3.80
2022-11-16T09:56:17.786Z,3.10
2022-11-16T09:59:13.674Z,2.90
2022-11-16T10:02:17.237Z,3.70
2022-11-16T10:05:01.118Z,2.50
2022-11-16T10:07:38.835Z,4.10
2022-11-16T10:10:17.725Z,3.40
2022-11-16T10:13:21.434Z,3.90
2022-11-16T10:16:24.086Z,2.90
2022-11-16T10:18:52.088Z,2.90
2022-11-16T10:21:49.650Z,3.80
2022-11-16T10:24:25.923Z,2.70
2022-11-16T10:27:03.243Z,3.10
2022-11-16T10:29:38.854Z,3.10
2022-11-16T10:32:28.977Z,3.00
2022-11-16T10:35:43.697Z,3.60
2022-11-16T10:38:34.270Z,3.20
2022-11-16T10:41:18.355Z,2.00
2022-11-16T10:43:48.724Z,3.40
2022-11-16T10:46:40.089Z,3.00
2022-11-16T10:49:30.551Z,3.00
2022-11-16T10:51:58.665Z,2.80
2022-11-16T10:54:26.539Z,3.00
2022-11-16T10:57:17.956Z,3.30
2022-11-16T10:59:55.494Z,2.50
2022-11-16T11:02:34.809Z,2.30
2022-11-16T11:05:22.012Z,3.00
2022-11-16T11:08:02.063Z,3.10
2022-11-16T11:10:37.461Z,2.30
2022-11-16T11:13:05.378Z,3.10
2022-11-16T11:15:33.838Z,3.40
2022-11-16T11:18:24.659Z,2.10
2022-11-16T11:21:19.383Z,2.60
2022-11-16T11:23:52.495Z,2.70
2022-11-16T11:26:40.478Z,2.10
2022-11-16T11:29:34.750Z,2.60
2022-11-16T11:32:18.015Z,3.20
2022-11-16T11:34:53.956Z,2.90
2022-11-16T11:37:34.821Z,2.60
2022-11-16T11:40:27.981Z,3.00
2022-11-16T11:43:04.117Z,2.60
2022-11-16T11:46:34.526Z,3.50
2022-11-16T11:49:24.718Z,2.80
2022-11-16T11:52:05.387Z,2.40
2022-11-16T11:54:46.135Z,2.50
2022-11-16T11:57:22.272Z,2.60
2022-11-16T11:59:54.605Z,2.90
2022-11-16T12:02:28.753Z,2.60
2022-11-16T12:05:27.951Z,2.40
2022-11-16T12:08:46.389Z,2.20
2022-11-16T12:11:41.925Z,3.30
2022-11-16T12:14:53.536Z,2.70
2022-11-16T12:18:08.074Z,2.80
2022-11-16T12:21:07.504Z,3.00
2022-11-16T12:24:03.620Z,2.40
2022-11-16T12:26:53.392Z,1.60
2022-11-16T12:29:42.447Z,1.60
2022-11-16T12:32:38.175Z,3.30
2022-11-16T12:35:24.885Z,1.90
2022-11-16T12:38:26.546Z,2.20
2022-11-16T12:41:32.813Z,1.80
2022-11-16T12:44:33.854Z,1.90
2022-11-16T12:47:29.796Z,2.50
2022-11-16T12:50:37.179Z,1.70
2022-11-16T12:53:17.634Z,2.10
2022-11-16T12:56:00.962Z,2.50
2022-11-16T12:59:14.297Z,2.10
2022-11-16T13:02:31.997Z,2.70
2022-11-16T13:05:44.446Z,2.30
2022-11-16T13:08:47.134Z,2.20
2022-11-16T13:11:47.063Z,2.10
2022-11-16T13:14:23.827Z,2.60
2022-11-16T13:16:55.203Z,1.80
2022-11-16T13:19:24.626Z,1.90
2022-11-16T13:22:06.260Z,3.40
2022-11-16T13:25:17.554Z,2.20
2022-11-16T13:28:09.608Z,2.00
2022-11-16T13:31:17.926Z,3.60
2022-11-16T13:34:05.634Z,2.00
2022-11-16T13:36:39.905Z,2.60
2022-11-16T13:39:11.202Z,2.70
2022-11-16T13:41:43.625Z,2.20
2022-11-16T13:44:23.671Z,2.90
2022-11-16T13:47:38.493Z,2.50
2022-11-16T13:50:19.957Z,2.90
2022-11-16T13:53:46.359Z,1.60
2022-11-16T13:55:48.012Z,2.10
2022-11-16T14:01:06.020Z,2.00
2022-11-16T14:03:41.300Z,1.80
2022-11-16T14:06:24.544Z,2.00
2022-11-16T14:09:00.520Z,1.60
2022-11-16T14:11:39.891Z,1.80
2022-11-16T14:15:04.181Z,1.90
2022-11-16T14:17:58.180Z,1.80
2022-11-16T14:20:37.597Z,5.10
2022-11-16T14:23:54.108Z,1.70
2022-11-16T14:26:24.745Z,1.90
2022-11-16T14:29:26.193Z,3.30
2022-11-16T14:31:58.837Z,2.30
2022-11-16T14:34:44.470Z,2.40
2022-11-16T14:37:33.305Z,2.70
2022-11-16T14:40:17.474Z,2.00
2022-11-16T14:46:13.824Z,2.90
2022-11-16T14:48:46.327Z,2.50
2022-11-16T14:51:31.180Z,3.70
2022-11-16T14:54:19.016Z,2.40
2022-11-16T14:57:02.945Z,4.40
2022-11-16T14:59:32.169Z,2.80
2022-11-16T15:02:18.542Z,2.50
2022-11-16T15:04:49.328Z,2.50
2022-11-16T15:07:19.977Z,2.70
2022-11-16T15:09:53.030Z,3.10
2022-11-16T15:12:44.423Z,3.10
2022-11-16T15:15:12.803Z,3.30
2022-11-16T15:17:46.679Z,1.80
2022-11-16T15:20:23.281Z,3.50
2022-11-16T15:22:55.219Z,3.50
2022-11-16T15:25:37.098Z,3.60
2022-11-16T15:28:15.553Z,2.60
2022-11-16T15:30:50.453Z,2.50
2022-11-16T15:33:44.161Z,2.10
2022-11-16T15:36:39.667Z,2.50
2022-11-16T15:39:21.895Z,3.30
2022-11-16T15:41:51.671Z,2.20
2022-11-16T15:44:22.568Z,2.40
2022-11-16T15:46:56.054Z,3.10
2022-11-16T15:49:37.905Z,3.50
2022-11-16T15:52:06.199Z,2.90
2022-11-16T15:54:54.960Z,1.90
2022-11-16T15:57:24.747Z,2.70
2022-11-16T15:59:56.041Z,2.10
2022-11-16T16:02:28.883Z,4.30
2022-11-16T16:04:57.276Z,3.20
2022-11-16T16:07:42.375Z,2.70
2022-11-16T16:10:25.504Z,2.10
2022-11-16T16:13:00.005Z,3.20
2022-11-16T16:15:40.356Z,4.30
2022-11-16T16:18:39.525Z,3.90
2022-11-16T16:21:09.974Z,3.70
2022-11-16T16:23:46.070Z,3.50
2022-11-16T16:26:18.310Z,3.70
2022-11-16T16:28:47.359Z,2.90
2022-11-16T16:31:19.577Z,3.60
2022-11-16T16:33:47.590Z,3.20
2022-11-16T16:36:15.712Z,3.60
2022-11-16T16:38:43.745Z,3.60
2022-11-16T16:41:23.998Z,3.80
2022-11-16T16:43:54.238Z,3.10
2022-11-16T16:46:22.646Z,2.40
2022-11-16T16:48:50.503Z,4.10
2022-11-16T16:51:18.697Z,5.20
2022-11-16T16:53:47.472Z,3.00
2022-11-16T16:56:17.815Z,3.40
2022-11-16T16:58:46.387Z,4.20
2022-11-16T17:01:15.239Z,3.50
2022-11-16T17:03:43.554Z,4.40
2022-11-16T17:06:11.621Z,3.70
2022-11-16T17:08:40.510Z,3.10
2022-11-16T17:11:10.105Z,3.20
2022-11-16T17:13:38.010Z,4.40
2022-11-16T17:16:07.517Z,3.80
2022-11-16T17:18:35.904Z,3.60
2022-11-16T17:21:07.443Z,4.10
2022-11-16T17:23:37.112Z,3.70
2022-11-16T17:26:08.571Z,3.70
2022-11-16T17:28:37.172Z,3.90
2022-11-16T17:31:08.812Z,3.10
2022-11-16T17:33:42.017Z,4.50
2022-11-16T17:36:14.491Z,4.70
2022-11-16T17:38:43.603Z,4.30
2022-11-16T17:41:23.982Z,3.90
2022-11-16T17:43:54.279Z,5.60
2022-11-16T17:46:25.862Z,4.10
2022-11-16T17:48:54.103Z,3.30
2022-11-16T17:51:25.051Z,3.70
2022-11-16T17:53:53.931Z,3.60
2022-11-16T17:56:28.305Z,3.60
2022-11-16T17:58:58.721Z,3.70
2022-11-16T18:01:28.705Z,3.30
2022-11-16T18:03:57.279Z,4.10
2022-11-16T18:06:26.656Z,2.70
2022-11-16T18:08:55.058Z,4.00
2022-11-16T18:11:26.630Z,3.60
2022-11-16T18:14:01.204Z,3.20
2022-11-16T18:16:32.784Z,4.10
2022-11-16T18:19:06.583Z,5.20
2022-11-16T18:21:42.365Z,3.30
2022-11-16T18:24:11.728Z,3.50
2022-11-16T18:26:40.758Z,3.70
2022-11-16T18:29:12.921Z,3.30
2022-11-16T18:31:41.722Z,4.40
2022-11-16T18:34:13.902Z,4.00
2022-11-16T18:36:42.050Z,4.30
2022-11-16T18:39:10.222Z,3.00
2022-11-16T18:41:50.150Z,3.30
2022-11-16T18:44:23.161Z,4.10
2022-11-16T18:46:51.234Z,3.60
2022-11-16T18:49:19.309Z,3.50
2022-11-16T18:51:47.194Z,5.90
2022-11-16T18:54:15.430Z,3.60
2022-11-16T18:56:43.606Z,3.30
2022-11-16T18:59:11.603Z,2.70
2022-11-16T19:01:40.892Z,3.50
2022-11-16T19:04:11.003Z,3.60
2022-11-16T19:06:38.947Z,3.50
2022-11-16T19:09:09.918Z,3.50
2022-11-16T19:11:38.097Z,3.70
2022-11-16T19:14:09.126Z,3.70
2022-11-16T19:16:38.264Z,3.00
2022-11-16T19:19:08.885Z,3.20
2022-11-16T19:21:36.932Z,4.00
2022-11-16T19:24:07.286Z,4.20
2022-11-16T19:26:35.229Z,3.50
2022-11-16T19:29:05.046Z,2.90
2022-11-16T19:31:34.899Z,2.70
2022-11-16T19:34:11.139Z,2.70
2022-11-16T19:36:40.132Z,3.40
2022-11-16T19:39:09.001Z,3.50
2022-11-16T19:41:37.184Z,3.10
2022-11-16T19:44:06.066Z,2.50
2022-11-16T19:46:36.086Z,3.50
2022-11-16T19:49:04.260Z,5.20
2022-11-16T19:51:33.959Z,3.80
2022-11-16T19:54:03.273Z,3.20
2022-11-16T19:56:32.262Z,3.30
2022-11-16T19:59:00.752Z,3.60
2022-11-16T20:01:29.712Z,2.60
2022-11-16T20:04:02.762Z,4.80
2022-11-16T20:06:39.236Z,5.00
2022-11-16T20:09:12.152Z,6.30
2022-11-16T20:11:42.096Z,5.10
2022-11-16T20:14:12.147Z,3.10
2022-11-16T20:16:50.537Z,3.60
2022-11-16T20:19:19.928Z,3.50
2022-11-16T20:21:48.105Z,4.40
2022-11-16T20:24:17.940Z,3.00
2022-11-16T20:26:50.096Z,4.90
2022-11-16T20:29:20.237Z,4.30
2022-11-16T20:31:48.283Z,4.00
2022-11-16T20:34:20.518Z,3.10
2022-11-16T20:36:51.028Z,3.90
2022-11-16T20:39:21.373Z,3.70
2022-11-16T20:41:49.715Z,5.00
2022-11-16T20:44:22.108Z,3.20
2022-11-16T20:46:52.647Z,3.20
2022-11-16T20:49:21.665Z,4.10
2022-11-16T20:51:51.352Z,4.30
2022-11-16T20:54:19.253Z,4.10
2022-11-16T20:56:49.725Z,4.30
2022-11-16T20:59:19.021Z,4.00
2022-11-16T21:01:47.884Z,4.30
2022-11-16T21:04:16.251Z,4.50
2022-11-16T21:06:44.631Z,3.30
2022-11-16T21:09:15.778Z,4.10
2022-11-16T21:12:02.601Z,3.20
2022-11-16T21:14:30.859Z,4.40
2022-11-16T21:16:58.938Z,3.10
2022-11-16T21:19:28.440Z,2.90
2022-11-16T21:21:56.407Z,4.70
2022-11-16T21:24:24.923Z,3.50
2022-11-16T21:26:53.506Z,4.70
2022-11-16T21:29:26.074Z,4.10
2022-11-16T21:31:54.005Z,4.10
2022-11-16T21:34:24.546Z,5.50
2022-11-16T21:36:52.440Z,4.00
2022-11-16T21:39:20.699Z,3.20
2022-11-16T21:41:48.664Z,4.00
2022-11-16T21:44:16.495Z,4.90
2022-11-16T21:46:44.528Z,3.10
2022-11-16T21:49:13.000Z,5.50
2022-11-16T21:51:41.428Z,3.80
2022-11-16T21:54:09.407Z,6.00
2022-11-16T21:56:37.399Z,3.00
2022-11-16T21:59:05.679Z,3.20
2022-11-16T22:01:53.873Z,3.50
2022-11-16T22:04:40.941Z,3.80
2022-11-16T22:07:33.194Z,3.60
2022-11-16T22:10:10.229Z,4.40
2022-11-16T22:12:39.250Z,3.30
2022-11-16T22:15:09.275Z,3.70
2022-11-16T22:17:45.234Z,3.60
2022-11-16T22:20:13.231Z,3.20
2022-11-16T22:22:41.269Z,4.40
2022-11-16T22:25:11.336Z,3.30
2022-11-16T22:27:58.832Z,4.40
2022-11-16T22:30:28.741Z,3.00
2022-11-16T22:32:57.112Z,4.00
2022-11-16T22:35:25.282Z,4.50
2022-11-16T22:37:53.250Z,3.70
2022-11-16T22:40:21.219Z,2.80
2022-11-16T22:42:49.274Z,4.10
2022-11-16T22:45:17.266Z,3.80
2022-11-16T22:47:45.343Z,3.20
2022-11-16T22:50:13.174Z,3.40
2022-11-16T22:52:41.053Z,3.70
2022-11-16T22:55:09.345Z,3.50
2022-11-16T22:57:38.393Z,3.80
2022-11-16T23:00:07.987Z,3.80
2022-11-16T23:02:35.918Z,4.40
2022-11-16T23:05:04.695Z,3.20
2022-11-16T23:07:32.701Z,3.80
2022-11-16T23:10:00.770Z,2.90
2022-11-16T23:12:47.509Z,2.90
2022-11-16T23:15:54.015Z,3.00
2022-11-16T23:18:22.205Z,3.60
2022-11-16T23:21:08.841Z,3.70
2022-11-16T23:23:55.954Z,3.90
2022-11-16T23:26:44.482Z,3.40
2022-11-16T23:29:13.007Z,3.70
2022-11-16T23:31:40.908Z,3.10
2022-11-16T23:34:08.903Z,3.60
2022-11-16T23:36:36.742Z,3.20
2022-11-16T23:39:05.047Z,4.10
2022-11-16T23:41:52.098Z,3.70
2022-11-16T23:44:19.996Z,2.80
2022-11-16T23:46:47.849Z,3.10
2022-11-16T23:49:15.870Z,3.70
2022-11-16T23:51:43.754Z,3.60
2022-11-16T23:54:11.706Z,3.70
2022-11-16T23:56:39.755Z,3.20
2022-11-16T23:59:07.646Z,4.10
